sensor_id;sensor_type;location;lat;lon;timestamp;P1;durP1;ratioP1;P2;durP2;ratioP2
24216;SDS011;12356;49.386;8.688;2023-01-26T00:00:28;39.42;;;17.05;;
24216;SDS011;12356;49.386;8.688;2023-01-26T00:03:00;38.42;;;17.17;;
24216;SDS011;12356;49.386;8.688;2023-01-26T00:05:31;38.30;;;16.20;;
24216;SDS011;12356;49.386;8.688;2023-01-26T00:08:01;36.42;;;16.42;;
24216;SDS011;12356;49.386;8.688;2023-01-26T00:10:36;36.30;;;16.48;;
24216;SDS011;12356;49.386;8.688;2023-01-26T00:13:10;39.88;;;18.05;;
24216;SDS011;12356;49.386;8.688;2023-01-26T00:15:41;40.78;;;18.77;;
24216;SDS011;12356;49.386;8.688;2023-01-26T00:18:11;39.10;;;18.73;;
24216;SDS011;12356;49.386;8.688;2023-01-26T00:20:42;37.28;;;17.90;;
24216;SDS011;12356;49.386;8.688;2023-01-26T00:23:13;39.72;;;18.10;;
24216;SDS011;12356;49.386;8.688;2023-01-26T00:25:43;37.08;;;17.20;;
24216;SDS011;12356;49.386;8.688;2023-01-26T00:28:14;40.33;;;18.77;;
24216;SDS011;12356;49.386;8.688;2023-01-26T00:30:44;38.67;;;17.38;;
24216;SDS011;12356;49.386;8.688;2023-01-26T00:33:15;37.42;;;18.25;;
24216;SDS011;12356;49.386;8.688;2023-01-26T00:35:52;39.53;;;18.70;;
24216;SDS011;12356;49.386;8.688;2023-01-26T00:38:23;40.50;;;18.63;;
24216;SDS011;12356;49.386;8.688;2023-01-26T00:40:54;39.35;;;18.88;;
24216;SDS011;12356;49.386;8.688;2023-01-26T00:43:24;40.65;;;18.77;;
24216;SDS011;12356;49.386;8.688;2023-01-26T00:45:55;38.20;;;17.25;;
24216;SDS011;12356;49.386;8.688;2023-01-26T00:48:26;36.85;;;17.33;;
24216;SDS011;12356;49.386;8.688;2023-01-26T00:50:56;42.35;;;18.30;;
24216;SDS011;12356;49.386;8.688;2023-01-26T00:53:27;43.33;;;18.92;;
24216;SDS011;12356;49.386;8.688;2023-01-26T00:55:58;40.90;;;19.02;;
24216;SDS011;12356;49.386;8.688;2023-01-26T00:58:28;39.60;;;18.08;;
24216;SDS011;12356;49.386;8.688;2023-01-26T01:00:59;41.47;;;18.23;;
24216;SDS011;12356;49.386;8.688;2023-01-26T01:03:30;36.58;;;17.65;;
24216;SDS011;12356;49.386;8.688;2023-01-26T01:06:00;40.78;;;18.92;;
24216;SDS011;12356;49.386;8.688;2023-01-26T01:08:31;37.15;;;17.25;;
24216;SDS011;12356;49.386;8.688;2023-01-26T01:11:02;40.92;;;17.27;;
24216;SDS011;12356;49.386;8.688;2023-01-26T01:13:38;37.05;;;17.02;;
24216;SDS011;12356;49.386;8.688;2023-01-26T01:16:11;37.08;;;17.27;;
24216;SDS011;12356;49.386;8.688;2023-01-26T01:18:43;33.72;;;16.15;;
24216;SDS011;12356;49.386;8.688;2023-01-26T01:21:15;39.00;;;17.60;;
24216;SDS011;12356;49.386;8.688;2023-01-26T01:23:46;35.70;;;17.05;;
24216;SDS011;12356;49.386;8.688;2023-01-26T01:26:17;40.67;;;17.63;;
24216;SDS011;12356;49.386;8.688;2023-01-26T01:28:48;36.72;;;16.95;;
24216;SDS011;12356;49.386;8.688;2023-01-26T01:31:22;37.35;;;17.50;;
24216;SDS011;12356;49.386;8.688;2023-01-26T01:33:54;40.03;;;17.05;;
24216;SDS011;12356;49.386;8.688;2023-01-26T01:36:25;36.80;;;16.35;;
24216;SDS011;12356;49.386;8.688;2023-01-26T01:38:58;39.60;;;16.65;;
24216;SDS011;12356;49.386;8.688;2023-01-26T01:41:28;42.55;;;17.27;;
24216;SDS011;12356;49.386;8.688;2023-01-26T01:44:16;37.25;;;16.90;;
24216;SDS011;12356;49.386;8.688;2023-01-26T01:46:55;38.40;;;16.58;;
24216;SDS011;12356;49.386;8.688;2023-01-26T01:49:39;36.15;;;17.35;;
24216;SDS011;12356;49.386;8.688;2023-01-26T01:52:11;38.97;;;16.83;;
24216;SDS011;12356;49.386;8.688;2023-01-26T01:54:50;39.67;;;17.55;;
24216;SDS011;12356;49.386;8.688;2023-01-26T01:57:30;39.70;;;16.92;;
24216;SDS011;12356;49.386;8.688;2023-01-26T02:00:18;36.90;;;17.55;;
24216;SDS011;12356;49.386;8.688;2023-01-26T02:02:54;37.80;;;16.70;;
24216;SDS011;12356;49.386;8.688;2023-01-26T02:05:53;38.30;;;17.58;;
24216;SDS011;12356;49.386;8.688;2023-01-26T02:08:43;37.47;;;16.67;;
24216;SDS011;12356;49.386;8.688;2023-01-26T02:11:18;35.35;;;16.55;;
24216;SDS011;12356;49.386;8.688;2023-01-26T02:13:55;37.15;;;16.90;;
24216;SDS011;12356;49.386;8.688;2023-01-26T02:16:27;38.17;;;16.27;;
24216;SDS011;12356;49.386;8.688;2023-01-26T02:18:57;36.00;;;16.48;;
24216;SDS011;12356;49.386;8.688;2023-01-26T02:21:28;33.63;;;15.30;;
24216;SDS011;12356;49.386;8.688;2023-01-26T02:26:31;34.20;;;15.50;;
24216;SDS011;12356;49.386;8.688;2023-01-26T02:29:05;35.30;;;15.70;;
24216;SDS011;12356;49.386;8.688;2023-01-26T02:31:38;34.28;;;15.48;;
24216;SDS011;12356;49.386;8.688;2023-01-26T02:34:10;33.83;;;15.18;;
24216;SDS011;12356;49.386;8.688;2023-01-26T02:36:40;33.55;;;15.60;;
24216;SDS011;12356;49.386;8.688;2023-01-26T02:44:43;37.58;;;15.23;;
24216;SDS011;12356;49.386;8.688;2023-01-26T02:47:15;34.10;;;14.52;;
24216;SDS011;12356;49.386;8.688;2023-01-26T02:49:47;36.17;;;15.50;;
24216;SDS011;12356;49.386;8.688;2023-01-26T02:52:24;32.53;;;15.68;;
24216;SDS011;12356;49.386;8.688;2023-01-26T02:54:56;31.92;;;14.80;;
24216;SDS011;12356;49.386;8.688;2023-01-26T02:57:45;35.97;;;15.98;;
24216;SDS011;12356;49.386;8.688;2023-01-26T03:00:17;32.17;;;15.38;;
24216;SDS011;12356;49.386;8.688;2023-01-26T03:02:56;33.58;;;15.02;;
24216;SDS011;12356;49.386;8.688;2023-01-26T03:05:28;37.60;;;15.98;;
24216;SDS011;12356;49.386;8.688;2023-01-26T03:07:59;32.75;;;15.07;;
24216;SDS011;12356;49.386;8.688;2023-01-26T03:10:30;38.22;;;16.02;;
24216;SDS011;12356;49.386;8.688;2023-01-26T03:13:01;34.08;;;14.90;;
24216;SDS011;12356;49.386;8.688;2023-01-26T03:15:32;35.70;;;15.45;;
24216;SDS011;12356;49.386;8.688;2023-01-26T03:18:13;35.13;;;15.85;;
24216;SDS011;12356;49.386;8.688;2023-01-26T03:21:06;35.50;;;16.30;;
24216;SDS011;12356;49.386;8.688;2023-01-26T03:24:02;37.25;;;16.15;;
24216;SDS011;12356;49.386;8.688;2023-01-26T03:26:52;34.90;;;15.25;;
24216;SDS011;12356;49.386;8.688;2023-01-26T03:29:42;40.55;;;16.38;;
24216;SDS011;12356;49.386;8.688;2023-01-26T03:32:12;40.60;;;16.77;;
24216;SDS011;12356;49.386;8.688;2023-01-26T03:34:44;36.83;;;16.13;;
24216;SDS011;12356;49.386;8.688;2023-01-26T03:37:15;39.63;;;16.70;;
24216;SDS011;12356;49.386;8.688;2023-01-26T03:39:51;37.15;;;15.82;;
24216;SDS011;12356;49.386;8.688;2023-01-26T03:42:40;36.03;;;15.95;;
24216;SDS011;12356;49.386;8.688;2023-01-26T03:45:29;36.20;;;16.42;;
24216;SDS011;12356;49.386;8.688;2023-01-26T03:48:19;34.85;;;15.75;;
24216;SDS011;12356;49.386;8.688;2023-01-26T03:51:08;37.63;;;15.88;;
24216;SDS011;12356;49.386;8.688;2023-01-26T03:53:57;39.28;;;16.48;;
24216;SDS011;12356;49.386;8.688;2023-01-26T03:56:47;36.83;;;16.60;;
24216;SDS011;12356;49.386;8.688;2023-01-26T03:59:17;37.00;;;15.60;;
24216;SDS011;12356;49.386;8.688;2023-01-26T04:02:10;39.15;;;17.08;;
24216;SDS011;12356;49.386;8.688;2023-01-26T04:05:00;38.88;;;16.45;;
24216;SDS011;12356;49.386;8.688;2023-01-26T04:07:49;40.15;;;17.00;;
24216;SDS011;12356;49.386;8.688;2023-01-26T04:10:38;37.25;;;16.35;;
24216;SDS011;12356;49.386;8.688;2023-01-26T04:13:09;38.00;;;16.17;;
24216;SDS011;12356;49.386;8.688;2023-01-26T04:15:58;34.25;;;15.13;;
24216;SDS011;12356;49.386;8.688;2023-01-26T04:18:48;35.85;;;15.07;;
24216;SDS011;12356;49.386;8.688;2023-01-26T04:21:37;35.03;;;15.02;;
24216;SDS011;12356;49.386;8.688;2023-01-26T04:24:08;35.85;;;15.40;;
24216;SDS011;12356;49.386;8.688;2023-01-26T04:26:43;36.63;;;14.73;;
24216;SDS011;12356;49.386;8.688;2023-01-26T04:29:14;36.40;;;14.13;;
24216;SDS011;12356;49.386;8.688;2023-01-26T04:31:45;31.70;;;13.77;;
24216;SDS011;12356;49.386;8.688;2023-01-26T04:34:16;31.00;;;14.00;;
24216;SDS011;12356;49.386;8.688;2023-01-26T04:36:46;31.23;;;14.35;;
24216;SDS011;12356;49.386;8.688;2023-01-26T04:39:17;35.55;;;14.60;;
24216;SDS011;12356;49.386;8.688;2023-01-26T04:41:48;30.95;;;13.88;;
24216;SDS011;12356;49.386;8.688;2023-01-26T04:44:18;32.95;;;14.65;;
24216;SDS011;12356;49.386;8.688;2023-01-26T04:46:49;33.60;;;14.40;;
24216;SDS011;12356;49.386;8.688;2023-01-26T04:49:20;32.60;;;14.30;;
24216;SDS011;12356;49.386;8.688;2023-01-26T04:51:50;28.95;;;13.40;;
24216;SDS011;12356;49.386;8.688;2023-01-26T04:54:21;31.67;;;14.32;;
24216;SDS011;12356;49.386;8.688;2023-01-26T04:56:52;31.08;;;14.00;;
24216;SDS011;12356;49.386;8.688;2023-01-26T04:59:22;37.22;;;16.02;;
24216;SDS011;12356;49.386;8.688;2023-01-26T05:01:53;34.83;;;15.07;;
24216;SDS011;12356;49.386;8.688;2023-01-26T05:04:24;29.75;;;13.88;;
24216;SDS011;12356;49.386;8.688;2023-01-26T05:06:55;29.88;;;13.82;;
24216;SDS011;12356;49.386;8.688;2023-01-26T05:09:26;30.40;;;14.15;;
24216;SDS011;12356;49.386;8.688;2023-01-26T05:11:57;29.77;;;13.88;;
24216;SDS011;12356;49.386;8.688;2023-01-26T05:14:47;28.80;;;13.38;;
24216;SDS011;12356;49.386;8.688;2023-01-26T05:17:18;27.42;;;12.82;;
24216;SDS011;12356;49.386;8.688;2023-01-26T05:19:48;24.95;;;11.98;;
24216;SDS011;12356;49.386;8.688;2023-01-26T05:22:19;32.70;;;13.07;;
24216;SDS011;12356;49.386;8.688;2023-01-26T05:24:49;25.95;;;12.43;;
24216;SDS011;12356;49.386;8.688;2023-01-26T05:27:20;27.10;;;13.00;;
24216;SDS011;12356;49.386;8.688;2023-01-26T05:29:51;23.85;;;11.68;;
24216;SDS011;12356;49.386;8.688;2023-01-26T05:32:23;26.52;;;11.55;;
24216;SDS011;12356;49.386;8.688;2023-01-26T05:34:56;25.35;;;11.73;;
24216;SDS011;12356;49.386;8.688;2023-01-26T05:37:27;26.08;;;12.27;;
24216;SDS011;12356;49.386;8.688;2023-01-26T05:39:58;25.08;;;11.70;;
24216;SDS011;12356;49.386;8.688;2023-01-26T05:42:29;25.48;;;11.45;;
24216;SDS011;12356;49.386;8.688;2023-01-26T05:44:59;25.05;;;11.95;;
24216;SDS011;12356;49.386;8.688;2023-01-26T05:47:30;25.00;;;10.98;;
24216;SDS011;12356;49.386;8.688;2023-01-26T05:50:01;24.88;;;11.52;;
24216;SDS011;12356;49.386;8.688;2023-01-26T05:52:31;24.00;;;11.13;;
24216;SDS011;12356;49.386;8.688;2023-01-26T05:55:02;25.83;;;11.48;;
24216;SDS011;12356;49.386;8.688;2023-01-26T05:57:34;26.52;;;10.73;;
24216;SDS011;12356;49.386;8.688;2023-01-26T06:00:06;20.35;;;9.70;;
24216;SDS011;12356;49.386;8.688;2023-01-26T06:02:38;19.60;;;9.20;;
24216;SDS011;12356;49.386;8.688;2023-01-26T06:05:08;21.08;;;9.70;;
24216;SDS011;12356;49.386;8.688;2023-01-26T06:07:39;22.70;;;9.98;;
24216;SDS011;12356;49.386;8.688;2023-01-26T06:10:10;19.27;;;9.77;;
24216;SDS011;12356;49.386;8.688;2023-01-26T06:12:41;21.80;;;10.10;;
24216;SDS011;12356;49.386;8.688;2023-01-26T06:15:12;22.48;;;10.55;;
24216;SDS011;12356;49.386;8.688;2023-01-26T06:17:42;21.98;;;10.68;;
24216;SDS011;12356;49.386;8.688;2023-01-26T06:20:13;23.00;;;10.73;;
24216;SDS011;12356;49.386;8.688;2023-01-26T06:22:43;21.80;;;10.65;;
24216;SDS011;12356;49.386;8.688;2023-01-26T06:25:14;24.38;;;11.18;;
24216;SDS011;12356;49.386;8.688;2023-01-26T06:27:45;23.08;;;10.68;;
24216;SDS011;12356;49.386;8.688;2023-01-26T06:30:16;23.98;;;10.15;;
24216;SDS011;12356;49.386;8.688;2023-01-26T06:32:46;20.83;;;10.20;;
24216;SDS011;12356;49.386;8.688;2023-01-26T06:35:17;22.13;;;10.32;;
24216;SDS011;12356;49.386;8.688;2023-01-26T06:37:48;25.33;;;10.80;;
24216;SDS011;12356;49.386;8.688;2023-01-26T06:40:19;24.58;;;11.10;;
24216;SDS011;12356;49.386;8.688;2023-01-26T06:42:50;22.83;;;11.07;;
24216;SDS011;12356;49.386;8.688;2023-01-26T06:45:20;23.23;;;11.57;;
24216;SDS011;12356;49.386;8.688;2023-01-26T06:47:51;24.52;;;11.25;;
24216;SDS011;12356;49.386;8.688;2023-01-26T06:50:24;23.80;;;11.05;;
24216;SDS011;12356;49.386;8.688;2023-01-26T06:52:57;24.15;;;10.23;;
24216;SDS011;12356;49.386;8.688;2023-01-26T06:55:32;22.52;;;10.43;;
24216;SDS011;12356;49.386;8.688;2023-01-26T06:58:05;22.33;;;10.55;;
24216;SDS011;12356;49.386;8.688;2023-01-26T07:00:35;20.08;;;9.60;;
24216;SDS011;12356;49.386;8.688;2023-01-26T07:03:09;21.77;;;10.02;;
24216;SDS011;12356;49.386;8.688;2023-01-26T07:05:40;20.83;;;10.18;;
24216;SDS011;12356;49.386;8.688;2023-01-26T07:08:11;21.15;;;9.95;;
24216;SDS011;12356;49.386;8.688;2023-01-26T07:10:41;20.67;;;9.52;;
24216;SDS011;12356;49.386;8.688;2023-01-26T07:13:12;22.38;;;10.18;;
24216;SDS011;12356;49.386;8.688;2023-01-26T07:15:43;21.98;;;10.48;;
24216;SDS011;12356;49.386;8.688;2023-01-26T07:18:13;21.00;;;10.13;;
24216;SDS011;12356;49.386;8.688;2023-01-26T07:20:44;23.00;;;10.45;;
24216;SDS011;12356;49.386;8.688;2023-01-26T07:23:14;22.90;;;10.65;;
24216;SDS011;12356;49.386;8.688;2023-01-26T07:25:45;19.15;;;9.55;;
24216;SDS011;12356;49.386;8.688;2023-01-26T07:28:16;22.85;;;10.45;;
24216;SDS011;12356;49.386;8.688;2023-01-26T07:30:47;22.15;;;9.82;;
24216;SDS011;12356;49.386;8.688;2023-01-26T07:33:18;21.33;;;10.18;;
24216;SDS011;12356;49.386;8.688;2023-01-26T07:35:51;21.55;;;9.73;;
24216;SDS011;12356;49.386;8.688;2023-01-26T07:38:23;22.00;;;10.02;;
24216;SDS011;12356;49.386;8.688;2023-01-26T07:40:54;21.02;;;9.57;;
24216;SDS011;12356;49.386;8.688;2023-01-26T07:43:25;21.02;;;10.13;;
24216;SDS011;12356;49.386;8.688;2023-01-26T07:45:56;21.80;;;10.30;;
24216;SDS011;12356;49.386;8.688;2023-01-26T07:48:26;21.90;;;10.07;;
24216;SDS011;12356;49.386;8.688;2023-01-26T07:50:59;19.25;;;9.90;;
24216;SDS011;12356;49.386;8.688;2023-01-26T07:53:31;20.83;;;10.43;;
24216;SDS011;12356;49.386;8.688;2023-01-26T07:56:10;22.67;;;9.93;;
24216;SDS011;12356;49.386;8.688;2023-01-26T07:58:43;20.42;;;9.55;;
24216;SDS011;12356;49.386;8.688;2023-01-26T08:01:17;20.52;;;10.20;;
24216;SDS011;12356;49.386;8.688;2023-01-26T08:03:49;20.33;;;9.25;;
24216;SDS011;12356;49.386;8.688;2023-01-26T08:06:21;23.23;;;10.20;;
24216;SDS011;12356;49.386;8.688;2023-01-26T08:08:53;20.48;;;9.73;;
24216;SDS011;12356;49.386;8.688;2023-01-26T08:11:24;21.05;;;9.68;;
24216;SDS011;12356;49.386;8.688;2023-01-26T08:13:55;20.23;;;9.27;;
24216;SDS011;12356;49.386;8.688;2023-01-26T08:16:26;17.00;;;8.68;;
24216;SDS011;12356;49.386;8.688;2023-01-26T08:18:57;18.83;;;9.10;;
24216;SDS011;12356;49.386;8.688;2023-01-26T08:21:27;21.40;;;8.80;;
24216;SDS011;12356;49.386;8.688;2023-01-26T08:23:58;28.13;;;10.80;;
24216;SDS011;12356;49.386;8.688;2023-01-26T08:26:31;16.60;;;8.48;;
24216;SDS011;12356;49.386;8.688;2023-01-26T08:29:01;17.40;;;8.70;;
24216;SDS011;12356;49.386;8.688;2023-01-26T08:31:32;18.38;;;8.60;;
24216;SDS011;12356;49.386;8.688;2023-01-26T08:34:03;18.52;;;8.00;;
24216;SDS011;12356;49.386;8.688;2023-01-26T08:36:33;16.92;;;8.43;;
24216;SDS011;12356;49.386;8.688;2023-01-26T08:39:04;17.65;;;8.77;;
24216;SDS011;12356;49.386;8.688;2023-01-26T08:41:35;20.88;;;10.05;;
24216;SDS011;12356;49.386;8.688;2023-01-26T08:44:06;19.73;;;9.57;;
24216;SDS011;12356;49.386;8.688;2023-01-26T08:46:36;20.50;;;9.45;;
24216;SDS011;12356;49.386;8.688;2023-01-26T08:49:07;21.52;;;10.80;;
24216;SDS011;12356;49.386;8.688;2023-01-26T08:51:38;22.15;;;11.65;;
24216;SDS011;12356;49.386;8.688;2023-01-26T08:54:08;24.33;;;11.05;;
24216;SDS011;12356;49.386;8.688;2023-01-26T08:56:39;23.70;;;10.93;;
24216;SDS011;12356;49.386;8.688;2023-01-26T08:59:10;21.13;;;11.00;;
24216;SDS011;12356;49.386;8.688;2023-01-26T09:01:40;23.83;;;11.73;;
24216;SDS011;12356;49.386;8.688;2023-01-26T09:04:11;22.17;;;11.65;;
24216;SDS011;12356;49.386;8.688;2023-01-26T09:06:41;24.02;;;11.35;;
24216;SDS011;12356;49.386;8.688;2023-01-26T09:09:12;25.48;;;11.75;;
24216;SDS011;12356;49.386;8.688;2023-01-26T09:11:46;24.10;;;11.38;;
24216;SDS011;12356;49.386;8.688;2023-01-26T09:14:16;21.88;;;10.48;;
24216;SDS011;12356;49.386;8.688;2023-01-26T09:16:47;21.80;;;9.82;;
24216;SDS011;12356;49.386;8.688;2023-01-26T09:19:18;20.98;;;9.40;;
24216;SDS011;12356;49.386;8.688;2023-01-26T09:21:54;19.33;;;9.30;;
24216;SDS011;12356;49.386;8.688;2023-01-26T09:24:25;19.58;;;8.65;;
24216;SDS011;12356;49.386;8.688;2023-01-26T09:26:56;17.67;;;9.23;;
24216;SDS011;12356;49.386;8.688;2023-01-26T09:29:26;17.15;;;8.68;;
24216;SDS011;12356;49.386;8.688;2023-01-26T09:31:57;17.73;;;8.18;;
24216;SDS011;12356;49.386;8.688;2023-01-26T09:34:28;16.20;;;8.05;;
24216;SDS011;12356;49.386;8.688;2023-01-26T09:36:58;13.55;;;7.65;;
24216;SDS011;12356;49.386;8.688;2023-01-26T09:39:29;15.95;;;8.02;;
24216;SDS011;12356;49.386;8.688;2023-01-26T09:42:15;15.40;;;7.97;;
24216;SDS011;12356;49.386;8.688;2023-01-26T09:47:54;18.35;;;9.30;;
24216;SDS011;12356;49.386;8.688;2023-01-26T09:50:36;17.35;;;9.10;;
24216;SDS011;12356;49.386;8.688;2023-01-26T09:53:18;15.27;;;7.75;;
24216;SDS011;12356;49.386;8.688;2023-01-26T09:55:54;16.17;;;8.13;;
24216;SDS011;12356;49.386;8.688;2023-01-26T10:01:13;18.88;;;9.35;;
24216;SDS011;12356;49.386;8.688;2023-01-26T10:03:56;13.38;;;7.05;;
24216;SDS011;12356;49.386;8.688;2023-01-26T10:06:33;15.48;;;7.47;;
24216;SDS011;12356;49.386;8.688;2023-01-26T10:09:11;14.50;;;7.03;;
24216;SDS011;12356;49.386;8.688;2023-01-26T10:11:55;14.50;;;7.25;;
24216;SDS011;12356;49.386;8.688;2023-01-26T10:14:36;19.10;;;9.38;;
24216;SDS011;12356;49.386;8.688;2023-01-26T10:17:20;14.35;;;7.60;;
24216;SDS011;12356;49.386;8.688;2023-01-26T10:20:26;16.13;;;7.72;;
24216;SDS011;12356;49.386;8.688;2023-01-26T10:23:03;14.43;;;7.95;;
24216;SDS011;12356;49.386;8.688;2023-01-26T10:25:40;16.38;;;8.32;;
24216;SDS011;12356;49.386;8.688;2023-01-26T10:28:12;13.63;;;7.18;;
24216;SDS011;12356;49.386;8.688;2023-01-26T10:30:56;19.33;;;9.75;;
24216;SDS011;12356;49.386;8.688;2023-01-26T10:33:31;37.10;;;17.48;;
24216;SDS011;12356;49.386;8.688;2023-01-26T10:36:05;27.40;;;12.60;;
24216;SDS011;12356;49.386;8.688;2023-01-26T10:46:47;16.38;;;8.43;;
24216;SDS011;12356;49.386;8.688;2023-01-26T10:49:33;19.33;;;8.73;;
24216;SDS011;12356;49.386;8.688;2023-01-26T10:54:47;17.17;;;8.55;;
24216;SDS011;12356;49.386;8.688;2023-01-26T10:57:26;16.00;;;8.18;;
24216;SDS011;12356;49.386;8.688;2023-01-26T11:00:00;17.60;;;9.27;;
24216;SDS011;12356;49.386;8.688;2023-01-26T11:02:37;13.82;;;7.13;;
24216;SDS011;12356;49.386;8.688;2023-01-26T11:05:23;16.55;;;8.15;;
24216;SDS011;12356;49.386;8.688;2023-01-26T11:07:55;16.42;;;7.55;;
24216;SDS011;12356;49.386;8.688;2023-01-26T11:10:35;15.25;;;7.65;;
24216;SDS011;12356;49.386;8.688;2023-01-26T11:13:11;16.55;;;7.90;;
24216;SDS011;12356;49.386;8.688;2023-01-26T11:15:49;14.43;;;7.88;;
24216;SDS011;12356;49.386;8.688;2023-01-26T11:18:36;15.52;;;8.13;;
24216;SDS011;12356;49.386;8.688;2023-01-26T11:21:19;14.38;;;8.27;;
24216;SDS011;12356;49.386;8.688;2023-01-26T11:46:11;16.05;;;8.88;;
24216;SDS011;12356;49.386;8.688;2023-01-26T11:48:58;16.02;;;9.15;;
24216;SDS011;12356;49.386;8.688;2023-01-26T11:51:54;13.82;;;7.50;;
24216;SDS011;12356;49.386;8.688;2023-01-26T11:57:26;14.68;;;8.48;;
24216;SDS011;12356;49.386;8.688;2023-01-26T12:02:49;14.48;;;7.95;;
24216;SDS011;12356;49.386;8.688;2023-01-26T12:05:40;15.27;;;7.97;;
24216;SDS011;12356;49.386;8.688;2023-01-26T12:08:25;15.75;;;8.52;;
24216;SDS011;12356;49.386;8.688;2023-01-26T12:11:08;14.77;;;8.53;;
24216;SDS011;12356;49.386;8.688;2023-01-26T12:14:01;14.13;;;8.30;;
24216;SDS011;12356;49.386;8.688;2023-01-26T12:19:46;26.20;;;15.00;;
24216;SDS011;12356;49.386;8.688;2023-01-26T12:22:36;20.30;;;11.35;;
24216;SDS011;12356;49.386;8.688;2023-01-26T12:25:28;19.90;;;10.38;;
24216;SDS011;12356;49.386;8.688;2023-01-26T12:28:15;20.27;;;10.80;;
24216;SDS011;12356;49.386;8.688;2023-01-26T12:31:07;28.23;;;14.95;;
24216;SDS011;12356;49.386;8.688;2023-01-26T12:33:41;19.25;;;11.07;;
24216;SDS011;12356;49.386;8.688;2023-01-26T12:42:02;19.80;;;10.32;;
24216;SDS011;12356;49.386;8.688;2023-01-26T12:45:19;23.80;;;10.63;;
24216;SDS011;12356;49.386;8.688;2023-01-26T12:48:04;18.13;;;10.40;;
24216;SDS011;12356;49.386;8.688;2023-01-26T12:50:45;18.58;;;10.82;;
24216;SDS011;12356;49.386;8.688;2023-01-26T12:56:08;22.77;;;12.68;;
24216;SDS011;12356;49.386;8.688;2023-01-26T12:58:46;25.05;;;14.35;;
24216;SDS011;12356;49.386;8.688;2023-01-26T13:01:19;22.65;;;13.00;;
24216;SDS011;12356;49.386;8.688;2023-01-26T13:03:53;32.92;;;16.92;;
24216;SDS011;12356;49.386;8.688;2023-01-26T13:06:27;20.10;;;11.65;;
24216;SDS011;12356;49.386;8.688;2023-01-26T13:11:52;18.85;;;10.55;;
24216;SDS011;12356;49.386;8.688;2023-01-26T13:24:49;20.52;;;11.43;;
24216;SDS011;12356;49.386;8.688;2023-01-26T13:35:28;22.60;;;12.45;;
24216;SDS011;12356;49.386;8.688;2023-01-26T13:40:53;22.25;;;11.13;;
24216;SDS011;12356;49.386;8.688;2023-01-26T13:52:14;24.75;;;13.63;;
24216;SDS011;12356;49.386;8.688;2023-01-26T13:54:54;20.58;;;11.50;;
24216;SDS011;12356;49.386;8.688;2023-01-26T13:57:27;24.73;;;13.98;;
24216;SDS011;12356;49.386;8.688;2023-01-26T13:59:59;22.05;;;11.77;;
24216;SDS011;12356;49.386;8.688;2023-01-26T14:02:30;21.30;;;12.73;;
24216;SDS011;12356;49.386;8.688;2023-01-26T14:07:34;21.95;;;11.18;;
24216;SDS011;12356;49.386;8.688;2023-01-26T14:10:14;22.15;;;11.25;;
24216;SDS011;12356;49.386;8.688;2023-01-26T14:12:52;25.23;;;12.35;;
24216;SDS011;12356;49.386;8.688;2023-01-26T14:15:28;23.25;;;13.05;;
24216;SDS011;12356;49.386;8.688;2023-01-26T14:18:02;19.75;;;10.80;;
24216;SDS011;12356;49.386;8.688;2023-01-26T14:20:38;21.33;;;11.32;;
24216;SDS011;12356;49.386;8.688;2023-01-26T14:23:10;19.27;;;10.80;;
24216;SDS011;12356;49.386;8.688;2023-01-26T14:25:54;20.20;;;11.05;;
24216;SDS011;12356;49.386;8.688;2023-01-26T14:28:32;19.23;;;10.82;;
24216;SDS011;12356;49.386;8.688;2023-01-26T14:31:19;20.10;;;11.05;;
24216;SDS011;12356;49.386;8.688;2023-01-26T14:33:53;18.42;;;11.15;;
24216;SDS011;12356;49.386;8.688;2023-01-26T14:36:28;19.88;;;11.02;;
24216;SDS011;12356;49.386;8.688;2023-01-26T14:39:02;21.65;;;11.15;;
24216;SDS011;12356;49.386;8.688;2023-01-26T14:41:48;22.85;;;12.65;;
24216;SDS011;12356;49.386;8.688;2023-01-26T14:44:19;26.70;;;11.93;;
24216;SDS011;12356;49.386;8.688;2023-01-26T14:46:51;24.52;;;13.25;;
24216;SDS011;12356;49.386;8.688;2023-01-26T14:52:25;19.92;;;11.50;;
24216;SDS011;12356;49.386;8.688;2023-01-26T14:55:02;17.30;;;10.55;;
24216;SDS011;12356;49.386;8.688;2023-01-26T14:57:54;23.92;;;12.68;;
24216;SDS011;12356;49.386;8.688;2023-01-26T15:00:26;19.73;;;10.82;;
24216;SDS011;12356;49.386;8.688;2023-01-26T15:03:11;22.20;;;12.23;;
24216;SDS011;12356;49.386;8.688;2023-01-26T15:05:46;19.90;;;10.55;;
24216;SDS011;12356;49.386;8.688;2023-01-26T15:08:21;21.80;;;12.70;;
24216;SDS011;12356;49.386;8.688;2023-01-26T15:10:54;21.13;;;12.25;;
24216;SDS011;12356;49.386;8.688;2023-01-26T15:13:51;22.55;;;11.90;;
24216;SDS011;12356;49.386;8.688;2023-01-26T15:16:24;25.02;;;14.00;;
24216;SDS011;12356;49.386;8.688;2023-01-26T15:18:59;22.13;;;11.32;;
24216;SDS011;12356;49.386;8.688;2023-01-26T15:21:36;20.33;;;10.55;;
24216;SDS011;12356;49.386;8.688;2023-01-26T15:24:13;22.27;;;11.15;;
24216;SDS011;12356;49.386;8.688;2023-01-26T15:26:44;21.27;;;10.48;;
24216;SDS011;12356;49.386;8.688;2023-01-26T15:29:17;18.05;;;10.10;;
24216;SDS011;12356;49.386;8.688;2023-01-26T15:31:54;20.08;;;10.50;;
24216;SDS011;12356;49.386;8.688;2023-01-26T15:34:35;17.10;;;10.05;;
24216;SDS011;12356;49.386;8.688;2023-01-26T15:39:58;18.50;;;10.10;;
24216;SDS011;12356;49.386;8.688;2023-01-26T15:42:29;20.05;;;11.30;;
24216;SDS011;12356;49.386;8.688;2023-01-26T15:45:00;22.40;;;11.48;;
24216;SDS011;12356;49.386;8.688;2023-01-26T15:47:31;18.33;;;10.68;;
24216;SDS011;12356;49.386;8.688;2023-01-26T15:50:01;18.92;;;10.65;;
24216;SDS011;12356;49.386;8.688;2023-01-26T15:52:32;18.30;;;11.02;;
24216;SDS011;12356;49.386;8.688;2023-01-26T15:55:10;21.15;;;11.27;;
24216;SDS011;12356;49.386;8.688;2023-01-26T15:57:49;19.33;;;10.90;;
24216;SDS011;12356;49.386;8.688;2023-01-26T16:00:20;19.83;;;11.05;;
24216;SDS011;12356;49.386;8.688;2023-01-26T16:02:52;19.08;;;9.70;;
24216;SDS011;12356;49.386;8.688;2023-01-26T16:05:23;18.45;;;10.40;;
24216;SDS011;12356;49.386;8.688;2023-01-26T16:07:55;21.25;;;11.98;;
24216;SDS011;12356;49.386;8.688;2023-01-26T16:10:26;18.30;;;10.60;;
24216;SDS011;12356;49.386;8.688;2023-01-26T16:12:57;17.92;;;10.10;;
24216;SDS011;12356;49.386;8.688;2023-01-26T16:18:16;19.55;;;10.82;;
24216;SDS011;12356;49.386;8.688;2023-01-26T16:20:47;18.75;;;10.40;;
24216;SDS011;12356;49.386;8.688;2023-01-26T16:25:49;21.40;;;10.35;;
24216;SDS011;12356;49.386;8.688;2023-01-26T16:28:20;15.20;;;9.38;;
24216;SDS011;12356;49.386;8.688;2023-01-26T16:30:51;16.33;;;9.52;;
24216;SDS011;12356;49.386;8.688;2023-01-26T16:33:21;16.48;;;9.45;;
24216;SDS011;12356;49.386;8.688;2023-01-26T16:35:53;16.83;;;9.63;;
24216;SDS011;12356;49.386;8.688;2023-01-26T16:38:24;17.33;;;9.88;;
24216;SDS011;12356;49.386;8.688;2023-01-26T16:40:55;19.98;;;11.05;;
24216;SDS011;12356;49.386;8.688;2023-01-26T16:43:25;17.65;;;10.18;;
24216;SDS011;12356;49.386;8.688;2023-01-26T16:45:56;18.50;;;10.18;;
24216;SDS011;12356;49.386;8.688;2023-01-26T16:48:27;19.27;;;10.90;;
24216;SDS011;12356;49.386;8.688;2023-01-26T16:51:16;21.42;;;12.02;;
24216;SDS011;12356;49.386;8.688;2023-01-26T16:53:48;21.35;;;11.45;;
24216;SDS011;12356;49.386;8.688;2023-01-26T16:56:19;19.95;;;11.35;;
24216;SDS011;12356;49.386;8.688;2023-01-26T16:58:49;20.05;;;11.27;;